sensor_id;sensor_type;location;lat;lon;timestamp;temperature;humidity
69436;SHT31;56625;54.322;18.582;2022-11-25T00:01:26;2.14;86.21
69436;SHT31;56625;54.322;18.582;2022-11-25T00:03:55;2.17;86.21
69436;SHT31;56625;54.322;18.582;2022-11-25T00:06:25;2.16;85.87
69436;SHT31;56625;54.322;18.582;2022-11-25T00:08:56;2.16;85.79
69436;SHT31;56625;54.322;18.582;2022-11-25T00:11:26;2.13;85.57
69436;SHT31;56625;54.322;18.582;2022-11-25T00:13:53;2.07;85.41
69436;SHT31;56625;54.322;18.582;2022-11-25T00:16:22;2.06;85.72
69436;SHT31;56625;54.322;18.582;2022-11-25T00:18:54;2.13;86.05
69436;SHT31;56625;54.322;18.582;2022-11-25T00:21:24;2.22;86.10
69436;SHT31;56625;54.322;18.582;2022-11-25T00:23:55;2.27;85.80
69436;SHT31;56625;54.322;18.582;2022-11-25T00:26:28;2.29;85.70
69436;SHT31;56625;54.322;18.582;2022-11-25T00:29:01;2.30;85.45
69436;SHT31;56625;54.322;18.582;2022-11-25T00:31:32;2.33;85.38
69436;SHT31;56625;54.322;18.582;2022-11-25T00:34:01;2.34;85.34
69436;SHT31;56625;54.322;18.582;2022-11-25T00:36:29;2.35;85.19
69436;SHT31;56625;54.322;18.582;2022-11-25T00:39:00;2.35;85.16
69436;SHT31;56625;54.322;18.582;2022-11-25T00:41:31;2.30;84.94
69436;SHT31;56625;54.322;18.582;2022-11-25T00:44:17;2.24;85.20
69436;SHT31;56625;54.322;18.582;2022-11-25T00:49:40;2.31;85.51
69436;SHT31;56625;54.322;18.582;2022-11-25T00:52:12;2.23;85.21
69436;SHT31;56625;54.322;18.582;2022-11-25T00:54:41;2.16;85.28
69436;SHT31;56625;54.322;18.582;2022-11-25T00:57:10;2.13;85.47
69436;SHT31;56625;54.322;18.582;2022-11-25T00:59:38;2.11;85.33
69436;SHT31;56625;54.322;18.582;2022-11-25T01:02:06;2.09;85.33
69436;SHT31;56625;54.322;18.582;2022-11-25T01:04:33;2.07;85.52
69436;SHT31;56625;54.322;18.582;2022-11-25T01:07:01;2.07;85.52
69436;SHT31;56625;54.322;18.582;2022-11-25T01:09:27;2.01;85.53
69436;SHT31;56625;54.322;18.582;2022-11-25T01:11:54;1.89;85.32
69436;SHT31;56625;54.322;18.582;2022-11-25T01:14:22;1.80;85.69
69436;SHT31;56625;54.322;18.582;2022-11-25T01:16:49;1.74;85.90
69436;SHT31;56625;54.322;18.582;2022-11-25T01:19:16;1.64;85.81
69436;SHT31;56625;54.322;18.582;2022-11-25T01:21:44;1.64;86.28
69436;SHT31;56625;54.322;18.582;2022-11-25T01:24:13;1.66;86.28
69436;SHT31;56625;54.322;18.582;2022-11-25T01:26:41;1.69;86.42
69436;SHT31;56625;54.322;18.582;2022-11-25T01:29:16;1.75;86.68
69436;SHT31;56625;54.322;18.582;2022-11-25T01:31:45;1.80;86.65
69436;SHT31;56625;54.322;18.582;2022-11-25T01:34:15;1.84;86.64
69436;SHT31;56625;54.322;18.582;2022-11-25T01:36:45;1.80;86.23
69436;SHT31;56625;54.322;18.582;2022-11-25T01:39:22;1.78;86.52
69436;SHT31;56625;54.322;18.582;2022-11-25T01:41:58;1.80;86.65
69436;SHT31;56625;54.322;18.582;2022-11-25T01:44:27;1.82;86.46
69436;SHT31;56625;54.322;18.582;2022-11-25T01:46:59;1.74;86.07
69436;SHT31;56625;54.322;18.582;2022-11-25T01:49:45;1.68;86.36
69436;SHT31;56625;54.322;18.582;2022-11-25T01:52:28;1.64;86.46
69436;SHT31;56625;54.322;18.582;2022-11-25T01:55:08;1.60;86.66
69436;SHT31;56625;54.322;18.582;2022-11-25T01:57:42;1.61;86.86
69436;SHT31;56625;54.322;18.582;2022-11-25T02:00:21;1.61;86.85
69436;SHT31;56625;54.322;18.582;2022-11-25T02:02:51;1.55;86.63
69436;SHT31;56625;54.322;18.582;2022-11-25T02:05:22;1.47;86.65
69436;SHT31;56625;54.322;18.582;2022-11-25T02:08:16;1.51;87.02
69436;SHT31;56625;54.322;18.582;2022-11-25T02:10:46;1.61;87.19
69436;SHT31;56625;54.322;18.582;2022-11-25T02:13:13;1.67;87.04
69436;SHT31;56625;54.322;18.582;2022-11-25T02:15:40;1.68;86.69
69436;SHT31;56625;54.322;18.582;2022-11-25T02:18:07;1.69;86.65
69436;SHT31;56625;54.322;18.582;2022-11-25T02:20:34;1.68;86.52
69436;SHT31;56625;54.322;18.582;2022-11-25T02:25:51;1.73;86.66
69436;SHT31;56625;54.322;18.582;2022-11-25T02:28:21;1.69;86.23
69436;SHT31;56625;54.322;18.582;2022-11-25T02:30:51;1.64;86.13
69436;SHT31;56625;54.322;18.582;2022-11-25T02:33:19;1.59;86.00
69436;SHT31;56625;54.322;18.582;2022-11-25T02:35:47;1.54;86.06
69436;SHT31;56625;54.322;18.582;2022-11-25T02:41:13;1.71;86.81
69436;SHT31;56625;54.322;18.582;2022-11-25T02:44:06;1.75;86.93
69436;SHT31;56625;54.322;18.582;2022-11-25T02:46:33;1.82;86.95
69436;SHT31;56625;54.322;18.582;2022-11-25T02:49:00;1.76;86.33
69436;SHT31;56625;54.322;18.582;2022-11-25T02:51:37;1.65;86.02
69436;SHT31;56625;54.322;18.582;2022-11-25T02:54:09;1.54;86.05
69436;SHT31;56625;54.322;18.582;2022-11-25T02:56:41;1.46;86.27
69436;SHT31;56625;54.322;18.582;2022-11-25T02:59:09;1.39;86.50
69436;SHT31;56625;54.322;18.582;2022-11-25T03:01:37;1.34;86.73
69436;SHT31;56625;54.322;18.582;2022-11-25T03:04:04;1.30;87.01
69436;SHT31;56625;54.322;18.582;2022-11-25T03:06:32;1.28;87.27
69436;SHT31;56625;54.322;18.582;2022-11-25T03:08:59;1.28;87.38
69436;SHT31;56625;54.322;18.582;2022-11-25T03:11:25;1.34;87.83
69436;SHT31;56625;54.322;18.582;2022-11-25T03:14:11;1.40;87.93
69436;SHT31;56625;54.322;18.582;2022-11-25T03:16:38;1.39;87.57
69436;SHT31;56625;54.322;18.582;2022-11-25T03:19:05;1.50;88.05
69436;SHT31;56625;54.322;18.582;2022-11-25T03:21:31;1.59;87.99
69436;SHT31;56625;54.322;18.582;2022-11-25T03:23:58;1.74;88.28
69436;SHT31;56625;54.322;18.582;2022-11-25T03:26:25;1.78;87.84
69436;SHT31;56625;54.322;18.582;2022-11-25T03:28:52;1.82;87.81
69436;SHT31;56625;54.322;18.582;2022-11-25T03:31:19;1.89;87.79
69436;SHT31;56625;54.322;18.582;2022-11-25T03:33:45;1.89;87.50
69436;SHT31;56625;54.322;18.582;2022-11-25T03:36:12;1.89;87.56
69436;SHT31;56625;54.322;18.582;2022-11-25T03:38:39;1.98;87.88
69436;SHT31;56625;54.322;18.582;2022-11-25T03:41:06;2.09;87.69
69436;SHT31;56625;54.322;18.582;2022-11-25T03:43:32;2.20;87.40
69436;SHT31;56625;54.322;18.582;2022-11-25T03:46:01;2.31;87.21
69436;SHT31;56625;54.322;18.582;2022-11-25T03:48:28;2.40;86.98
69436;SHT31;56625;54.322;18.582;2022-11-25T03:50:55;2.48;86.86
69436;SHT31;56625;54.322;18.582;2022-11-25T03:53:22;2.59;86.71
69436;SHT31;56625;54.322;18.582;2022-11-25T03:55:48;2.64;86.30
69436;SHT31;56625;54.322;18.582;2022-11-25T03:58:15;2.59;85.68
69436;SHT31;56625;54.322;18.582;2022-11-25T04:00:42;2.55;85.61
69436;SHT31;56625;54.322;18.582;2022-11-25T04:03:09;2.48;85.50
69436;SHT31;56625;54.322;18.582;2022-11-25T04:05:36;2.41;85.35
69436;SHT31;56625;54.322;18.582;2022-11-25T04:08:02;2.34;85.30
69436;SHT31;56625;54.322;18.582;2022-11-25T04:10:29;2.29;85.45
69436;SHT31;56625;54.322;18.582;2022-11-25T04:12:56;2.20;85.42
69436;SHT31;56625;54.322;18.582;2022-11-25T04:15:23;2.10;85.41
69436;SHT31;56625;54.322;18.582;2022-11-25T04:17:49;1.97;85.47
69436;SHT31;56625;54.322;18.582;2022-11-25T04:20:16;1.85;85.74
69436;SHT31;56625;54.322;18.582;2022-11-25T04:22:43;1.80;86.16
69436;SHT31;56625;54.322;18.582;2022-11-25T04:25:09;1.82;86.48
69436;SHT31;56625;54.322;18.582;2022-11-25T04:27:37;1.83;86.32
69436;SHT31;56625;54.322;18.582;2022-11-25T04:30:04;1.88;86.51
69436;SHT31;56625;54.322;18.582;2022-11-25T04:32:32;1.88;86.25
69436;SHT31;56625;54.322;18.582;2022-11-25T04:34:59;1.75;86.10
69436;SHT31;56625;54.322;18.582;2022-11-25T04:37:26;1.63;86.32
69436;SHT31;56625;54.322;18.582;2022-11-25T04:39:52;1.53;86.58
69436;SHT31;56625;54.322;18.582;2022-11-25T04:42:19;1.47;86.79
69436;SHT31;56625;54.322;18.582;2022-11-25T04:44:58;1.43;87.01
69436;SHT31;56625;54.322;18.582;2022-11-25T04:47:47;1.46;87.23
69436;SHT31;56625;54.322;18.582;2022-11-25T04:50:14;1.58;87.52
69436;SHT31;56625;54.322;18.582;2022-11-25T04:52:46;1.70;87.56
69436;SHT31;56625;54.322;18.582;2022-11-25T04:55:12;1.80;87.45
69436;SHT31;56625;54.322;18.582;2022-11-25T04:57:39;1.87;87.29
69436;SHT31;56625;54.322;18.582;2022-11-25T05:00:07;1.99;87.51
69436;SHT31;56625;54.322;18.582;2022-11-25T05:02:35;2.08;87.13
69436;SHT31;56625;54.322;18.582;2022-11-25T05:05:02;2.10;86.66
69436;SHT31;56625;54.322;18.582;2022-11-25T05:07:30;2.07;86.06
69436;SHT31;56625;54.322;18.582;2022-11-25T05:09:57;2.06;85.89
69436;SHT31;56625;54.322;18.582;2022-11-25T05:12:25;2.04;85.88
69436;SHT31;56625;54.322;18.582;2022-11-25T05:14:54;2.05;86.01
69436;SHT31;56625;54.322;18.582;2022-11-25T05:17:22;2.06;86.02
69436;SHT31;56625;54.322;18.582;2022-11-25T05:19:52;2.00;85.69
69436;SHT31;56625;54.322;18.582;2022-11-25T05:22:20;1.95;85.80
69436;SHT31;56625;54.322;18.582;2022-11-25T05:24:50;1.84;85.55
69436;SHT31;56625;54.322;18.582;2022-11-25T05:27:19;1.69;85.62
69436;SHT31;56625;54.322;18.582;2022-11-25T05:29:47;1.57;85.88
69436;SHT31;56625;54.322;18.582;2022-11-25T05:32:21;1.51;86.11
69436;SHT31;56625;54.322;18.582;2022-11-25T05:34:48;1.47;86.36
69436;SHT31;56625;54.322;18.582;2022-11-25T05:37:15;1.45;86.55
69436;SHT31;56625;54.322;18.582;2022-11-25T05:39:48;1.40;86.74
69436;SHT31;56625;54.322;18.582;2022-11-25T05:42:15;1.38;86.88
69436;SHT31;56625;54.322;18.582;2022-11-25T05:44:41;1.40;87.09
69436;SHT31;56625;54.322;18.582;2022-11-25T05:47:08;1.39;86.96
69436;SHT31;56625;54.322;18.582;2022-11-25T05:49:34;1.38;86.91
69436;SHT31;56625;54.322;18.582;2022-11-25T05:52:01;1.42;87.18
69436;SHT31;56625;54.322;18.582;2022-11-25T05:54:28;1.53;87.23
69436;SHT31;56625;54.322;18.582;2022-11-25T05:56:54;1.59;87.03
69436;SHT31;56625;54.322;18.582;2022-11-25T05:59:21;1.60;86.69
69436;SHT31;56625;54.322;18.582;2022-11-25T06:01:47;1.59;86.59
69436;SHT31;56625;54.322;18.582;2022-11-25T06:04:14;1.61;86.71
69436;SHT31;56625;54.322;18.582;2022-11-25T06:06:41;1.61;86.58
69436;SHT31;56625;54.322;18.582;2022-11-25T06:09:08;1.58;86.47
69436;SHT31;56625;54.322;18.582;2022-11-25T06:11:34;1.53;86.43
69436;SHT31;56625;54.322;18.582;2022-11-25T06:14:01;1.45;86.54
69436;SHT31;56625;54.322;18.582;2022-11-25T06:16:28;1.43;86.69
69436;SHT31;56625;54.322;18.582;2022-11-25T06:18:54;1.42;86.85
69436;SHT31;56625;54.322;18.582;2022-11-25T06:21:21;1.43;86.90
69436;SHT31;56625;54.322;18.582;2022-11-25T06:23:48;1.44;86.95
69436;SHT31;56625;54.322;18.582;2022-11-25T06:26:18;1.42;87.02
69436;SHT31;56625;54.322;18.582;2022-11-25T06:28:47;1.39;87.06
69436;SHT31;56625;54.322;18.582;2022-11-25T06:31:20;1.36;87.17
69436;SHT31;56625;54.322;18.582;2022-11-25T06:33:51;1.34;87.20
69436;SHT31;56625;54.322;18.582;2022-11-25T06:36:19;1.32;87.20
69436;SHT31;56625;54.322;18.582;2022-11-25T06:38:49;1.31;87.23
69436;SHT31;56625;54.322;18.582;2022-11-25T06:41:19;1.31;87.31
69436;SHT31;56625;54.322;18.582;2022-11-25T06:43:48;1.30;87.36
69436;SHT31;56625;54.322;18.582;2022-11-25T06:46:17;1.30;87.31
69436;SHT31;56625;54.322;18.582;2022-11-25T06:48:53;1.29;87.27
69436;SHT31;56625;54.322;18.582;2022-11-25T06:51:20;1.28;87.19
69436;SHT31;56625;54.322;18.582;2022-11-25T06:53:49;1.27;87.18
69436;SHT31;56625;54.322;18.582;2022-11-25T06:56:18;1.28;87.09
69436;SHT31;56625;54.322;18.582;2022-11-25T06:58:47;1.29;87.00
69436;SHT31;56625;54.322;18.582;2022-11-25T07:01:16;1.31;86.97
69436;SHT31;56625;54.322;18.582;2022-11-25T07:03:47;1.31;86.98
69436;SHT31;56625;54.322;18.582;2022-11-25T07:06:20;1.32;87.04
69436;SHT31;56625;54.322;18.582;2022-11-25T07:08:47;1.33;87.11
69436;SHT31;56625;54.322;18.582;2022-11-25T07:11:20;1.36;87.21
69436;SHT31;56625;54.322;18.582;2022-11-25T07:13:51;2.28;91.32
69436;SHT31;56625;54.322;18.582;2022-11-25T07:16:24;3.39;93.18
69436;SHT31;56625;54.322;18.582;2022-11-25T07:18:52;3.29;89.87
69436;SHT31;56625;54.322;18.582;2022-11-25T07:21:20;3.10;87.25
69436;SHT31;56625;54.322;18.582;2022-11-25T07:23:50;2.92;86.20
69436;SHT31;56625;54.322;18.582;2022-11-25T07:28:51;2.94;86.14
69436;SHT31;56625;54.322;18.582;2022-11-25T07:31:28;2.79;84.80
69436;SHT31;56625;54.322;18.582;2022-11-25T07:34:01;2.61;84.83
69436;SHT31;56625;54.322;18.582;2022-11-25T07:36:35;2.48;84.83
69436;SHT31;56625;54.322;18.582;2022-11-25T07:39:04;2.35;84.72
69436;SHT31;56625;54.322;18.582;2022-11-25T07:41:34;2.23;84.81
69436;SHT31;56625;54.322;18.582;2022-11-25T07:44:02;2.16;85.02
69436;SHT31;56625;54.322;18.582;2022-11-25T07:46:31;2.17;85.48
69436;SHT31;56625;54.322;18.582;2022-11-25T07:49:02;2.28;85.76
69436;SHT31;56625;54.322;18.582;2022-11-25T07:51:39;2.25;85.09
69436;SHT31;56625;54.322;18.582;2022-11-25T07:54:16;2.17;85.06
69436;SHT31;56625;54.322;18.582;2022-11-25T07:56:43;2.08;85.09
69436;SHT31;56625;54.322;18.582;2022-11-25T07:59:11;2.03;85.40
69436;SHT31;56625;54.322;18.582;2022-11-25T08:01:41;2.00;85.57
69436;SHT31;56625;54.322;18.582;2022-11-25T08:04:09;2.09;85.96
69436;SHT31;56625;54.322;18.582;2022-11-25T08:06:47;2.18;85.86
69436;SHT31;56625;54.322;18.582;2022-11-25T08:09:17;2.31;86.00
69436;SHT31;56625;54.322;18.582;2022-11-25T08:11:46;2.43;85.85
69436;SHT31;56625;54.322;18.582;2022-11-25T08:14:15;2.56;85.67
69436;SHT31;56625;54.322;18.582;2022-11-25T08:16:42;2.66;85.24
69436;SHT31;56625;54.322;18.582;2022-11-25T08:19:11;2.68;84.67
69436;SHT31;56625;54.322;18.582;2022-11-25T08:21:40;2.62;84.35
69436;SHT31;56625;54.322;18.582;2022-11-25T08:24:09;2.53;84.36
69436;SHT31;56625;54.322;18.582;2022-11-25T08:26:41;2.47;84.41
69436;SHT31;56625;54.322;18.582;2022-11-25T08:29:09;2.43;84.59
69436;SHT31;56625;54.322;18.582;2022-11-25T08:31:40;2.43;84.70
69436;SHT31;56625;54.322;18.582;2022-11-25T08:34:09;2.43;84.75
69436;SHT31;56625;54.322;18.582;2022-11-25T08:36:47;2.44;84.72
69436;SHT31;56625;54.322;18.582;2022-11-25T08:39:15;2.41;84.58
69436;SHT31;56625;54.322;18.582;2022-11-25T08:42:04;2.36;84.58
69436;SHT31;56625;54.322;18.582;2022-11-25T08:44:31;2.27;84.60
69436;SHT31;56625;54.322;18.582;2022-11-25T08:46:58;2.18;84.93
69436;SHT31;56625;54.322;18.582;2022-11-25T08:49:25;2.16;85.08
69436;SHT31;56625;54.322;18.582;2022-11-25T08:51:54;2.12;85.12
69436;SHT31;56625;54.322;18.582;2022-11-25T08:54:21;2.07;85.32
69436;SHT31;56625;54.322;18.582;2022-11-25T08:56:48;2.06;85.60
69436;SHT31;56625;54.322;18.582;2022-11-25T08:59:14;2.07;85.67
69436;SHT31;56625;54.322;18.582;2022-11-25T09:01:41;2.03;85.62
69436;SHT31;56625;54.322;18.582;2022-11-25T09:04:08;1.99;85.77
69436;SHT31;56625;54.322;18.582;2022-11-25T09:06:34;1.99;85.88
69436;SHT31;56625;54.322;18.582;2022-11-25T09:09:01;2.04;85.89
69436;SHT31;56625;54.322;18.582;2022-11-25T09:11:31;2.06;85.80
69436;SHT31;56625;54.322;18.582;2022-11-25T09:13:58;2.06;85.81
69436;SHT31;56625;54.322;18.582;2022-11-25T09:16:25;2.04;85.79
69436;SHT31;56625;54.322;18.582;2022-11-25T09:18:52;2.02;85.86
69436;SHT31;56625;54.322;18.582;2022-11-25T09:21:22;2.00;85.86
69436;SHT31;56625;54.322;18.582;2022-11-25T09:23:50;1.95;85.80
69436;SHT31;56625;54.322;18.582;2022-11-25T09:26:23;1.93;85.92
69436;SHT31;56625;54.322;18.582;2022-11-25T09:28:53;1.93;85.91
69436;SHT31;56625;54.322;18.582;2022-11-25T09:31:21;1.97;86.03
69436;SHT31;56625;54.322;18.582;2022-11-25T09:33:49;2.02;86.01
69436;SHT31;56625;54.322;18.582;2022-11-25T09:36:16;2.04;85.84
69436;SHT31;56625;54.322;18.582;2022-11-25T09:38:45;2.02;85.42
69436;SHT31;56625;54.322;18.582;2022-11-25T09:48:08;2.02;84.38
69436;SHT31;56625;54.322;18.582;2022-11-25T09:51:11;1.98;84.21
69436;SHT31;56625;54.322;18.582;2022-11-25T09:53:51;1.96;84.10
69436;SHT31;56625;54.322;18.582;2022-11-25T09:59:14;1.93;83.67
69436;SHT31;56625;54.322;18.582;2022-11-25T10:01:49;1.90;83.48
69436;SHT31;56625;54.322;18.582;2022-11-25T10:05:02;1.88;83.28
69436;SHT31;56625;54.322;18.582;2022-11-25T10:08:07;1.90;83.50
69436;SHT31;56625;54.322;18.582;2022-11-25T10:10:59;1.92;83.14
69436;SHT31;56625;54.322;18.582;2022-11-25T10:13:42;1.85;82.58
69436;SHT31;56625;54.322;18.582;2022-11-25T10:16:29;1.81;82.95
69436;SHT31;56625;54.322;18.582;2022-11-25T10:24:57;1.93;82.77
69436;SHT31;56625;54.322;18.582;2022-11-25T10:27:40;1.99;82.37
69436;SHT31;56625;54.322;18.582;2022-11-25T10:30:33;1.92;80.25
69436;SHT31;56625;54.322;18.582;2022-11-25T10:35:52;1.77;80.45
69436;SHT31;56625;54.322;18.582;2022-11-25T10:38:54;1.71;80.11
69436;SHT31;56625;54.322;18.582;2022-11-25T10:41:25;1.70;80.04
69436;SHT31;56625;54.322;18.582;2022-11-25T10:44:01;1.70;79.94
69436;SHT31;56625;54.322;18.582;2022-11-25T10:49:29;1.85;80.48
69436;SHT31;56625;54.322;18.582;2022-11-25T10:52:12;1.93;80.33
69436;SHT31;56625;54.322;18.582;2022-11-25T10:54:39;1.97;79.89
69436;SHT31;56625;54.322;18.582;2022-11-25T10:57:17;1.98;79.09
69436;SHT31;56625;54.322;18.582;2022-11-25T10:59:53;1.95;78.24
69436;SHT31;56625;54.322;18.582;2022-11-25T11:07:37;1.80;77.10
69436;SHT31;56625;54.322;18.582;2022-11-25T11:15:46;1.90;78.63
69436;SHT31;56625;54.322;18.582;2022-11-25T11:18:27;1.98;78.85
69436;SHT31;56625;54.322;18.582;2022-11-25T11:21:04;2.04;78.70
69436;SHT31;56625;54.322;18.582;2022-11-25T11:23:50;2.03;78.34
69436;SHT31;56625;54.322;18.582;2022-11-25T11:26:25;2.00;78.37
69436;SHT31;56625;54.322;18.582;2022-11-25T11:29:05;1.92;78.06
69436;SHT31;56625;54.322;18.582;2022-11-25T11:31:46;1.86;78.60
69436;SHT31;56625;54.322;18.582;2022-11-25T11:34:35;1.88;79.23
69436;SHT31;56625;54.322;18.582;2022-11-25T11:49:02;1.99;79.36
69436;SHT31;56625;54.322;18.582;2022-11-25T11:54:33;1.98;80.36
69436;SHT31;56625;54.322;18.582;2022-11-25T11:57:29;2.00;80.53
69436;SHT31;56625;54.322;18.582;2022-11-25T12:00:27;2.00;80.40
69436;SHT31;56625;54.322;18.582;2022-11-25T12:03:01;1.97;80.35
69436;SHT31;56625;54.322;18.582;2022-11-25T12:05:46;2.02;80.68
69436;SHT31;56625;54.322;18.582;2022-11-25T12:08:22;2.07;80.67
69436;SHT31;56625;54.322;18.582;2022-11-25T12:11:08;2.09;80.57
69436;SHT31;56625;54.322;18.582;2022-11-25T12:19:32;2.00;80.25
69436;SHT31;56625;54.322;18.582;2022-11-25T12:25:03;2.01;80.68
69436;SHT31;56625;54.322;18.582;2022-11-25T12:28:16;2.05;80.60
69436;SHT31;56625;54.322;18.582;2022-11-25T12:31:15;2.09;80.56
69436;SHT31;56625;54.322;18.582;2022-11-25T12:34:04;2.15;80.49
69436;SHT31;56625;54.322;18.582;2022-11-25T12:37:08;2.14;80.19
69436;SHT31;56625;54.322;18.582;2022-11-25T12:39:48;2.12;80.26
69436;SHT31;56625;54.322;18.582;2022-11-25T12:43:02;2.15;80.41
69436;SHT31;56625;54.322;18.582;2022-11-25T12:45:50;2.14;80.45
69436;SHT31;56625;54.322;18.582;2022-11-25T12:48:31;2.16;80.61
69436;SHT31;56625;54.322;18.582;2022-11-25T12:51:18;2.19;80.70
69436;SHT31;56625;54.322;18.582;2022-11-25T13:09:27;2.16;80.47
69436;SHT31;56625;54.322;18.582;2022-11-25T13:15:23;2.20;80.90
69436;SHT31;56625;54.322;18.582;2022-11-25T13:17:58;2.28;80.83
69436;SHT31;56625;54.322;18.582;2022-11-25T13:23:06;2.30;80.64
69436;SHT31;56625;54.322;18.582;2022-11-25T13:25:46;2.32;80.67
69436;SHT31;56625;54.322;18.582;2022-11-25T13:28:31;2.33;80.39
69436;SHT31;56625;54.322;18.582;2022-11-25T13:36:16;2.39;80.70
69436;SHT31;56625;54.322;18.582;2022-11-25T13:43:56;2.36;80.21
69436;SHT31;56625;54.322;18.582;2022-11-25T13:49:21;2.30;80.51
69436;SHT31;56625;54.322;18.582;2022-11-25T13:54:44;2.31;80.66
69436;SHT31;56625;54.322;18.582;2022-11-25T14:02:46;2.16;80.22
69436;SHT31;56625;54.322;18.582;2022-11-25T14:21:36;1.92;81.30
69436;SHT31;56625;54.322;18.582;2022-11-25T14:24:37;1.93;81.30
69436;SHT31;56625;54.322;18.582;2022-11-25T14:27:14;1.96;81.53
69436;SHT31;56625;54.322;18.582;2022-11-25T14:29:57;2.06;81.68
69436;SHT31;56625;54.322;18.582;2022-11-25T14:32:32;2.13;81.66
69436;SHT31;56625;54.322;18.582;2022-11-25T14:35:15;2.14;81.51
69436;SHT31;56625;54.322;18.582;2022-11-25T14:37:48;2.14;81.55
69436;SHT31;56625;54.322;18.582;2022-11-25T14:40:19;2.11;81.48
69436;SHT31;56625;54.322;18.582;2022-11-25T14:42:53;2.07;81.48
69436;SHT31;56625;54.322;18.582;2022-11-25T14:45:31;2.03;81.53
69436;SHT31;56625;54.322;18.582;2022-11-25T14:51:00;2.03;81.85
69436;SHT31;56625;54.322;18.582;2022-11-25T14:53:36;2.12;82.07
69436;SHT31;56625;54.322;18.582;2022-11-25T14:56:14;2.18;81.93
69436;SHT31;56625;54.322;18.582;2022-11-25T14:58:59;2.20;81.86
69436;SHT31;56625;54.322;18.582;2022-11-25T15:01:30;2.21;81.85
69436;SHT31;56625;54.322;18.582;2022-11-25T15:04:01;2.25;81.86
69436;SHT31;56625;54.322;18.582;2022-11-25T15:06:37;2.25;81.80
69436;SHT31;56625;54.322;18.582;2022-11-25T15:09:16;2.20;81.84
69436;SHT31;56625;54.322;18.582;2022-11-25T15:12:00;2.15;82.00
69436;SHT31;56625;54.322;18.582;2022-11-25T15:14:54;2.13;82.29
69436;SHT31;56625;54.322;18.582;2022-11-25T15:20:00;2.20;82.47
69436;SHT31;56625;54.322;18.582;2022-11-25T15:22:38;2.22;82.59
69436;SHT31;56625;54.322;18.582;2022-11-25T15:25:12;2.26;82.61
69436;SHT31;56625;54.322;18.582;2022-11-25T15:27:44;2.28;82.78
69436;SHT31;56625;54.322;18.582;2022-11-25T15:30:19;2.37;82.85
69436;SHT31;56625;54.322;18.582;2022-11-25T15:32:50;2.40;82.49
69436;SHT31;56625;54.322;18.582;2022-11-25T15:35:20;2.39;82.40
69436;SHT31;56625;54.322;18.582;2022-11-25T15:37:50;2.36;82.50
69436;SHT31;56625;54.322;18.582;2022-11-25T15:43:25;2.34;82.63
69436;SHT31;56625;54.322;18.582;2022-11-25T15:45:56;2.32;82.59
69436;SHT31;56625;54.322;18.582;2022-11-25T15:48:35;2.31;82.59
69436;SHT31;56625;54.322;18.582;2022-11-25T15:54:12;2.23;82.66
69436;SHT31;56625;54.322;18.582;2022-11-25T15:56:48;2.18;82.66
69436;SHT31;56625;54.322;18.582;2022-11-25T15:59:37;2.15;82.75
69436;SHT31;56625;54.322;18.582;2022-11-25T16:07:39;2.05;82.90
69436;SHT31;56625;54.322;18.582;2022-11-25T16:21:36;2.06;83.37
69436;SHT31;56625;54.322;18.582;2022-11-25T16:26:46;2.10;83.29
69436;SHT31;56625;54.322;18.582;2022-11-25T16:32:17;2.10;83.31
69436;SHT31;56625;54.322;18.582;2022-11-25T16:34:47;2.12;83.32
69436;SHT31;56625;54.322;18.582;2022-11-25T16:37:14;2.20;83.42
69436;SHT31;56625;54.322;18.582;2022-11-25T16:39:41;2.27;83.32
69436;SHT31;56625;54.322;18.582;2022-11-25T16:42:12;2.30;83.15
69436;SHT31;56625;54.322;18.582;2022-11-25T16:44:46;2.33;83.11
69436;SHT31;56625;54.322;18.582;2022-11-25T16:47:20;2.35;83.02
69436;SHT31;56625;54.322;18.582;2022-11-25T16:49:48;2.34;82.90
69436;SHT31;56625;54.322;18.582;2022-11-25T16:52:15;2.33;82.94
69436;SHT31;56625;54.322;18.582;2022-11-25T16:54:41;2.36;83.01
69436;SHT31;56625;54.322;18.582;2022-11-25T16:57:15;2.34;82.79
69436;SHT31;56625;54.322;18.582;2022-11-25T16:59:47;2.29;82.80
69436;SHT31;56625;54.322;18.582;2022-11-25T17:02:23;2.26;82.89
69436;SHT31;56625;54.322;18.582;2022-11-25T17:04:49;2.24;82.99
69436;SHT31;56625;54.322;18.582;2022-11-25T17:07:17;2.25;83.10
69436;SHT31;56625;54.322;18.582;2022-11-25T17:10:00;2.24;83.10
69436;SHT31;56625;54.322;18.582;2022-11-25T17:12:28;2.20;83.12
69436;SHT31;56625;54.322;18.582;2022-11-25T17:14:59;2.20;83.32
69436;SHT31;56625;54.322;18.582;2022-11-25T17:17:28;2.23;83.44
69436;SHT31;56625;54.322;18.582;2022-11-25T17:19:55;2.27;83.43
69436;SHT31;56625;54.322;18.582;2022-11-25T17:22:23;2.32;83.33
69436;SHT31;56625;54.322;18.582;2022-11-25T17:24:51;2.34;83.22
69436;SHT31;56625;54.322;18.582;2022-11-25T17:27:28;2.36;83.12
69436;SHT31;56625;54.322;18.582;2022-11-25T17:29:59;2.36;82.91
69436;SHT31;56625;54.322;18.582;2022-11-25T17:32:30;2.34;82.95
69436;SHT31;56625;54.322;18.582;2022-11-25T17:34:58;2.26;82.85
69436;SHT31;56625;54.322;18.582;2022-11-25T17:37:25;2.14;82.98
69436;SHT31;56625;54.322;18.582;2022-11-25T17:39:53;2.06;83.26
69436;SHT31;56625;54.322;18.582;2022-11-25T17:42:26;2.01;83.48
69436;SHT31;56625;54.322;18.582;2022-11-25T17:44:57;2.02;83.78
69436;SHT31;56625;54.322;18.582;2022-11-25T17:47:24;2.05;83.76
69436;SHT31;56625;54.322;18.582;2022-11-25T17:49:50;2.06;83.64
69436;SHT31;56625;54.322;18.582;2022-11-25T17:52:18;2.02;83.59
69436;SHT31;56625;54.322;18.582;2022-11-25T17:54:44;1.98;83.67
69436;SHT31;56625;54.322;18.582;2022-11-25T17:57:16;1.97;83.82
69436;SHT31;56625;54.322;18.582;2022-11-25T17:59:47;1.97;83.89
69436;SHT31;56625;54.322;18.582;2022-11-25T18:02:18;1.97;83.98
69436;SHT31;56625;54.322;18.582;2022-11-25T18:04:47;2.01;84.10
69436;SHT31;56625;54.322;18.582;2022-11-25T18:07:15;2.05;84.01
69436;SHT31;56625;54.322;18.582;2022-11-25T18:09:43;2.04;83.98
69436;SHT31;56625;54.322;18.582;2022-11-25T18:12:27;2.05;83.95
69436;SHT31;56625;54.322;18.582;2022-11-25T18:14:55;2.05;83.87
69436;SHT31;56625;54.322;18.582;2022-11-25T18:17:22;2.04;84.05
69436;SHT31;56625;54.322;18.582;2022-11-25T18:19:49;2.07;84.04
69436;SHT31;56625;54.322;18.582;2022-11-25T18:22:21;2.08;84.01
69436;SHT31;56625;54.322;18.582;2022-11-25T18:24:49;2.13;84.19
69436;SHT31;56625;54.322;18.582;2022-11-25T18:27:25;2.21;84.16
69436;SHT31;56625;54.322;18.582;2022-11-25T18:29:54;2.23;83.83
69436;SHT31;56625;54.322;18.582;2022-11-25T18:32:22;2.25;83.82
69436;SHT31;56625;54.322;18.582;2022-11-25T18:34:50;2.28;83.81
69436;SHT31;56625;54.322;18.582;2022-11-25T18:37:17;2.33;83.66
69436;SHT31;56625;54.322;18.582;2022-11-25T18:39:44;2.35;83.47
69436;SHT31;56625;54.322;18.582;2022-11-25T18:42:15;2.36;83.47